Time;durP1;ratioP1;P1;durP2;ratioP2;P2;SDS_P1;SDS_P2;PMS_P1;PMS_P2;Temp;Humidity;BMP_temperature;BMP_pressure;BME280_temperature;BME280_humidity;BME280_pressure;Samples;Min_cycle;Max_cycle;Signal;HPM_P1;HPM_P2
2023/06/17 00:02:06;;;;;;;8.25;6.85;;;20.30;93.10;;;;;;5050330;28;20029;-69
2023/06/17 00:04:31;;;;;;;12.82;7.20;;;20.10;93.30;;;;;;5050964;28;20021;-67
2023/06/17 00:06:57;;;;;;;13.23;7.65;;;20.20;93.40;;;;;;5050935;28;20013;-69
2023/06/17 00:09:23;;;;;;;12.05;8.20;;;20.00;93.40;;;;;;5050471;28;20157;-69
2023/06/17 00:11:48;;;;;;;11.23;8.00;;;19.90;94.00;;;;;;5049321;28;20118;-69
2023/06/17 00:14:16;;;;;;;11.70;8.00;;;19.80;94.20;;;;;;5050319;28;20116;-68
2023/06/17 00:16:43;;;;;;;13.88;7.60;;;20.00;94.10;;;;;;5050374;28;20149;-68
2023/06/17 00:19:15;;;;;;;11.90;8.25;;;20.00;94.10;;;;;;5050633;28;20064;-67
2023/06/17 00:21:48;;;;;;;12.45;7.82;;;20.00;94.00;;;;;;5050226;28;20566;-68
2023/06/17 00:24:14;;;;;;;13.15;7.95;;;20.00;94.20;;;;;;5050082;28;20455;-69
2023/06/17 00:26:40;;;;;;;11.38;7.88;;;20.00;94.20;;;;;;5050138;28;20029;-69
2023/06/17 00:29:06;;;;;;;11.50;7.07;;;19.90;94.60;;;;;;5050298;28;20355;-69
2023/06/17 00:31:33;;;;;;;10.90;7.35;;;19.90;94.20;;;;;;5049536;28;20087;-69
2023/06/17 00:33:59;;;;;;;12.15;7.25;;;20.00;94.10;;;;;;5050537;28;20033;-68
2023/06/17 00:36:24;;;;;;;11.98;7.75;;;19.90;94.60;;;;;;5050093;28;20025;-70
2023/06/17 00:38:50;;;;;;;14.40;7.15;;;19.80;94.70;;;;;;5050073;28;20596;-69
2023/06/17 00:41:16;;;;;;;15.43;8.43;;;19.80;95.00;;;;;;5049938;28;20452;-69
2023/06/17 00:43:42;;;;;;;16.98;7.63;;;19.80;95.00;;;;;;5049837;28;20093;-70
2023/06/17 00:46:13;;;;;;;13.35;8.32;;;19.80;94.90;;;;;;5050357;28;20036;-69
2023/06/17 00:48:39;;;;;;;13.25;7.82;;;19.70;94.90;;;;;;5049963;28;20112;-69
2023/06/17 00:51:05;;;;;;;13.70;7.88;;;19.60;95.30;;;;;;5049822;28;20178;-69
2023/06/17 00:53:31;;;;;;;12.63;8.77;;;19.70;95.30;;;;;;5049812;28;20041;-69
2023/06/17 00:56:00;;;;;;;16.33;9.00;;;19.60;95.70;;;;;;5048948;28;20116;-70
2023/06/17 00:58:26;;;;;;;14.48;8.73;;;19.50;95.90;;;;;;5050453;28;20044;-69
2023/06/17 01:00:52;;;;;;;16.58;8.55;;;19.50;96.00;;;;;;5049241;28;20424;-69
2023/06/17 01:03:18;;;;;;;16.05;8.27;;;19.50;95.90;;;;;;5050167;28;20033;-69
2023/06/17 01:05:47;;;;;;;11.77;7.97;;;19.50;95.90;;;;;;5050181;28;20417;-69
2023/06/17 01:08:19;;;;;;;10.48;7.40;;;19.50;96.00;;;;;;5049678;28;20051;-69
2023/06/17 01:10:55;;;;;;;12.02;7.50;;;19.50;96.00;;;;;;5048543;28;20044;-69
2023/06/17 01:13:23;;;;;;;15.32;8.30;;;19.40;96.00;;;;;;5054243;28;20106;-69
2023/06/17 01:15:50;;;;;;;15.18;8.23;;;19.40;96.10;;;;;;5053833;28;20581;-69
2023/06/17 01:18:20;;;;;;;12.85;8.10;;;19.40;95.90;;;;;;5053708;28;20086;-70
2023/06/17 01:20:53;;;;;;;13.80;8.68;;;19.40;95.90;;;;;;5053542;28;20055;-69
2023/06/17 01:23:31;;;;;;;10.45;8.07;;;19.30;95.80;;;;;;5053560;28;20033;-69
2023/06/17 01:25:58;;;;;;;13.55;8.98;;;19.20;95.80;;;;;;5053895;28;20025;-68
2023/06/17 01:28:24;;;;;;;12.70;8.07;;;19.10;95.90;;;;;;5054001;28;20017;-70
2023/06/17 01:30:56;;;;;;;12.98;8.63;;;19.10;95.90;;;;;;5052483;28;20033;-69
2023/06/17 01:33:23;;;;;;;12.20;7.60;;;19.00;96.10;;;;;;5053512;28;20052;-69
2023/06/17 01:36:07;;;;;;;10.73;8.20;;;19.10;95.90;;;;;;5044954;28;20029;-70
2023/06/17 01:38:47;;;;;;;13.98;7.32;;;19.10;96.10;;;;;;5033335;28;20029;-70
2023/06/17 01:41:19;;;;;;;11.15;7.93;;;19.10;95.90;;;;;;5033366;28;20033;-69
2023/06/17 01:43:45;;;;;;;10.85;8.25;;;19.00;95.50;;;;;;5033101;28;20487;-70
2023/06/17 01:46:15;;;;;;;14.43;9.88;;;18.80;95.40;;;;;;5033681;28;20017;-69
2023/06/17 01:48:41;;;;;;;16.13;7.82;;;18.70;95.20;;;;;;5033151;28;20463;-70
2023/06/17 01:51:08;;;;;;;17.10;8.65;;;18.70;95.20;;;;;;5033114;28;20037;-70
2023/06/17 01:53:33;;;;;;;11.05;8.40;;;18.70;95.20;;;;;;5033021;28;20038;-69
2023/06/17 01:55:59;;;;;;;10.93;8.23;;;18.70;95.20;;;;;;5032998;28;20037;-71
2023/06/17 01:58:25;;;;;;;12.77;8.43;;;18.70;95.20;;;;;;5033251;28;20087;-69
2023/06/17 02:00:50;;;;;;;13.93;8.68;;;18.50;95.20;;;;;;5033205;28;20045;-70
2023/06/17 02:03:17;;;;;;;12.55;7.85;;;18.40;95.20;;;;;;5033085;28;20103;-69
2023/06/17 02:05:43;;;;;;;12.10;7.85;;;18.30;95.20;;;;;;5033145;28;20034;-70
2023/06/17 02:08:09;;;;;;;15.75;8.45;;;18.30;95.20;;;;;;5032826;28;20036;-70
2023/06/17 02:10:35;;;;;;;9.88;7.43;;;18.20;95.20;;;;;;5033071;28;20021;-69
2023/06/17 02:13:05;;;;;;;15.10;8.18;;;18.10;95.20;;;;;;5033300;28;20124;-69
2023/06/17 02:15:31;;;;;;;12.07;8.10;;;18.00;95.20;;;;;;5032675;28;20026;-69
2023/06/17 02:17:56;;;;;;;12.40;7.82;;;18.00;95.20;;;;;;5033034;28;20041;-69
2023/06/17 02:20:23;;;;;;;17.92;8.77;;;18.10;95.00;;;;;;5033043;28;20033;-70
2023/06/17 02:22:49;;;;;;;17.52;8.00;;;18.20;94.80;;;;;;5032354;28;20432;-71
2023/06/17 02:25:15;;;;;;;12.10;8.80;;;18.30;94.70;;;;;;5032686;28;20472;-70
2023/06/17 02:27:41;;;;;;;15.70;8.55;;;18.00;94.90;;;;;;5032628;28;20116;-69
2023/06/17 02:30:09;;;;;;;10.30;7.68;;;18.00;95.00;;;;;;5032968;28;20475;-69
2023/06/17 02:32:35;;;;;;;11.98;8.45;;;18.10;94.80;;;;;;5031149;28;20115;-69
2023/06/17 02:35:02;;;;;;;12.63;7.85;;;18.10;94.90;;;;;;5032350;28;20037;-69
2023/06/17 02:37:28;;;;;;;13.13;8.60;;;18.10;94.80;;;;;;5032267;28;20014;-69
2023/06/17 02:39:54;;;;;;;13.45;8.82;;;18.00;94.90;;;;;;5032745;28;20044;-69
2023/06/17 02:42:20;;;;;;;12.75;7.43;;;18.00;94.80;;;;;;5032357;28;20328;-69
2023/06/17 02:44:46;;;;;;;9.30;7.45;;;18.00;94.90;;;;;;5032009;28;20124;-70
2023/06/17 02:47:12;;;;;;;10.45;8.00;;;18.00;94.90;;;;;;5031984;28;20424;-69
2023/06/17 02:49:38;;;;;;;12.60;8.40;;;17.90;94.80;;;;;;5031672;28;20073;-70
2023/06/17 02:52:04;;;;;;;14.43;8.93;;;17.80;95.00;;;;;;5031632;28;20053;-69
2023/06/17 02:54:30;;;;;;;10.68;7.57;;;17.80;94.80;;;;;;5032262;28;20305;-69
2023/06/17 02:56:56;;;;;;;10.70;8.27;;;17.90;94.80;;;;;;5030829;28;20030;-68
2023/06/17 02:59:22;;;;;;;15.15;7.97;;;17.90;94.80;;;;;;5031793;28;20044;-68
2023/06/17 03:01:48;;;;;;;10.20;7.40;;;17.80;94.90;;;;;;5031993;28;20025;-70
2023/06/17 03:04:14;;;;;;;16.30;8.02;;;17.80;94.80;;;;;;5032579;28;20352;-67
2023/06/17 03:06:44;;;;;;;12.45;7.43;;;17.80;94.90;;;;;;5031805;28;20182;-69
2023/06/17 03:09:11;;;;;;;12.82;7.88;;;17.70;95.00;;;;;;5031849;28;20045;-68
2023/06/17 03:11:37;;;;;;;11.05;7.10;;;17.70;94.90;;;;;;5030475;28;20037;-69
2023/06/17 03:14:03;;;;;;;12.18;8.13;;;17.40;94.70;;;;;;5031648;28;20029;-68
2023/06/17 03:16:31;;;;;;;14.27;8.23;;;17.40;94.70;;;;;;5031388;28;20537;-67
2023/06/17 03:18:58;;;;;;;11.95;7.82;;;17.30;94.60;;;;;;5031891;28;20033;-69
2023/06/17 03:21:25;;;;;;;14.15;8.02;;;17.30;94.50;;;;;;5031433;28;20025;-69
2023/06/17 03:23:51;;;;;;;13.63;7.63;;;17.30;94.50;;;;;;5031340;28;20052;-69
2023/06/17 03:26:17;;;;;;;18.42;7.85;;;17.30;94.70;;;;;;5030622;28;20582;-69
2023/06/17 03:28:43;;;;;;;10.52;7.50;;;17.10;94.60;;;;;;5030449;28;20375;-69
2023/06/17 03:31:10;;;;;;;14.55;8.05;;;17.20;94.60;;;;;;5031443;28;20057;-68
2023/06/17 03:33:36;;;;;;;14.20;8.25;;;17.20;94.50;;;;;;5030381;28;20335;-68
2023/06/17 03:36:02;;;;;;;15.00;8.05;;;17.10;94.80;;;;;;5029940;28;20038;-68
2023/06/17 03:38:28;;;;;;;17.35;8.27;;;17.10;95.00;;;;;;5031159;28;20479;-69
2023/06/17 03:40:53;;;;;;;15.02;8.63;;;17.20;95.00;;;;;;5031055;28;20029;-68
2023/06/17 03:43:19;;;;;;;16.23;8.50;;;17.20;94.90;;;;;;5031382;28;20386;-68
2023/06/17 03:45:45;;;;;;;10.82;8.02;;;17.30;94.80;;;;;;5031143;28;20079;-69
2023/06/17 03:48:11;;;;;;;11.50;7.75;;;17.30;94.80;;;;;;5030876;28;20040;-69
2023/06/17 03:50:36;;;;;;;9.90;7.63;;;17.40;95.00;;;;;;5030796;28;20033;-69
2023/06/17 03:53:02;;;;;;;13.32;8.43;;;17.40;95.30;;;;;;5030762;28;20029;-68
2023/06/17 03:55:29;;;;;;;13.68;8.45;;;17.30;95.10;;;;;;5030687;28;20021;-70
2023/06/17 03:57:54;;;;;;;13.52;8.48;;;17.40;95.00;;;;;;5031362;28;20010;-69
2023/06/17 04:00:20;;;;;;;13.77;8.60;;;17.40;95.00;;;;;;5030691;28;20183;-69
2023/06/17 04:02:47;;;;;;;15.05;9.90;;;17.50;95.00;;;;;;5030816;28;20519;-68
2023/06/17 04:05:13;;;;;;;12.25;8.55;;;17.50;95.00;;;;;;5030988;28;20119;-68
2023/06/17 04:07:39;;;;;;;15.82;8.40;;;17.50;95.00;;;;;;5030600;28;20102;-69
2023/06/17 04:10:09;;;;;;;12.95;8.52;;;17.60;95.00;;;;;;5031121;28;20025;-69
2023/06/17 04:12:41;;;;;;;11.57;9.05;;;17.60;95.00;;;;;;5030598;28;20364;-70
2023/06/17 04:15:08;;;;;;;16.58;9.23;;;17.50;95.00;;;;;;5031027;28;20049;-68
2023/06/17 04:17:37;;;;;;;17.83;8.33;;;17.60;94.90;;;;;;5030939;28;20341;-69
2023/06/17 04:20:10;;;;;;;11.50;8.18;;;17.50;95.00;;;;;;5029278;28;20034;-69
2023/06/17 04:22:37;;;;;;;12.55;9.02;;;17.50;95.00;;;;;;5029702;28;20469;-69
2023/06/17 04:25:03;;;;;;;13.20;8.55;;;17.60;95.00;;;;;;5029626;28;20040;-69
2023/06/17 04:27:29;;;;;;;19.90;9.35;;;17.60;95.20;;;;;;5030309;28;20418;-70
2023/06/17 04:29:56;;;;;;;17.02;9.25;;;17.70;95.10;;;;;;5030566;28;20033;-69
2023/06/17 04:32:26;;;;;;;16.98;10.20;;;17.70;95.40;;;;;;5029263;28;20442;-68
2023/06/17 04:34:52;;;;;;;13.35;9.38;;;17.50;95.70;;;;;;5029339;28;20448;-69
2023/06/17 04:37:18;;;;;;;18.25;10.05;;;17.60;95.60;;;;;;5031036;28;20029;-69
2023/06/17 04:39:44;;;;;;;16.10;9.93;;;17.60;95.80;;;;;;5030451;28;20029;-67
2023/06/17 04:42:10;;;;;;;19.13;10.38;;;17.70;95.80;;;;;;5030234;28;20239;-69
2023/06/17 04:44:39;;;;;;;17.88;10.68;;;17.80;95.80;;;;;;5030274;28;20029;-70
2023/06/17 04:47:07;;;;;;;17.83;10.73;;;17.80;95.80;;;;;;5031028;28;20113;-69
2023/06/17 04:49:38;;;;;;;17.92;9.77;;;17.70;96.20;;;;;;5034232;28;20064;-69
2023/06/17 04:52:09;;;;;;;22.27;11.15;;;17.80;96.30;;;;;;5034894;28;20474;-67
2023/06/17 04:54:35;;;;;;;19.25;11.88;;;17.90;96.30;;;;;;5034358;28;20021;-69
2023/06/17 04:57:01;;;;;;;24.02;12.60;;;17.80;96.60;;;;;;5032981;28;20462;-68
2023/06/17 04:59:27;;;;;;;26.90;13.25;;;17.80;97.10;;;;;;5034231;28;20038;-69
2023/06/17 05:01:52;;;;;;;25.50;13.55;;;18.00;96.80;;;;;;5034065;28;20124;-69
2023/06/17 05:04:18;;;;;;;28.08;13.98;;;18.20;96.80;;;;;;5034566;28;20030;-70
2023/06/17 05:06:45;;;;;;;32.90;14.13;;;18.20;96.90;;;;;;5032858;28;20036;-69
2023/06/17 05:09:10;;;;;;;28.95;14.40;;;18.20;97.00;;;;;;5034132;28;20099;-69
2023/06/17 05:11:38;;;;;;;31.88;14.65;;;18.30;97.20;;;;;;5033837;28;20444;-70
2023/06/17 05:14:04;;;;;;;32.17;15.23;;;18.10;97.60;;;;;;5034285;28;20087;-70
2023/06/17 05:16:30;;;;;;;33.42;15.18;;;18.30;97.40;;;;;;5034343;28;20052;-69
2023/06/17 05:18:56;;;;;;;35.28;16.27;;;18.30;97.40;;;;;;5034297;28;20037;-70
2023/06/17 05:21:22;;;;;;;34.40;17.20;;;18.30;97.50;;;;;;5034233;28;20475;-69
2023/06/17 05:23:48;;;;;;;35.35;16.90;;;18.40;97.50;;;;;;5033864;28;20056;-69
2023/06/17 05:26:14;;;;;;;33.00;16.83;;;18.40;97.50;;;;;;5033957;28;20029;-69
2023/06/17 05:28:40;;;;;;;32.20;17.17;;;18.40;97.60;;;;;;5033630;28;20373;-70
2023/06/17 05:31:05;;;;;;;35.42;18.45;;;18.40;97.70;;;;;;5032783;28;20041;-69
2023/06/17 05:33:31;;;;;;;37.97;18.10;;;18.40;97.90;;;;;;5033889;28;20061;-69
2023/06/17 05:36:00;;;;;;;39.90;19.98;;;18.40;98.10;;;;;;5033794;28;20112;-70
2023/06/17 05:38:26;;;;;;;42.85;21.90;;;18.40;98.00;;;;;;5033516;28;20026;-71
2023/06/17 05:40:52;;;;;;;40.20;20.75;;;18.40;98.30;;;;;;5033369;28;20117;-70
2023/06/17 05:43:18;;;;;;;41.03;20.60;;;18.50;98.10;;;;;;5032794;28;20108;-70
2023/06/17 05:45:43;;;;;;;42.42;21.48;;;18.40;98.20;;;;;;5032189;28;20148;-70
2023/06/17 05:48:09;;;;;;;40.95;20.45;;;18.40;98.60;;;;;;5033236;28;20033;-70
2023/06/17 05:50:35;;;;;;;47.85;21.75;;;18.40;98.30;;;;;;5033287;28;20042;-69
2023/06/17 05:53:00;;;;;;;47.08;21.80;;;18.40;98.30;;;;;;5033383;28;20137;-69
2023/06/17 05:55:26;;;;;;;42.60;21.58;;;18.30;98.50;;;;;;5033098;28;20022;-70
2023/06/17 05:57:52;;;;;;;47.83;23.67;;;18.40;98.50;;;;;;5032593;28;20025;-70
2023/06/17 06:00:22;;;;;;;45.80;22.83;;;18.30;98.40;;;;;;5033163;28;20100;-68
2023/06/17 06:02:48;;;;;;;47.25;23.08;;;18.40;98.40;;;;;;5033111;28;20109;-68
2023/06/17 06:05:13;;;;;;;42.15;22.30;;;18.40;98.30;;;;;;5032868;28;20034;-69
2023/06/17 06:07:41;;;;;;;47.33;22.67;;;18.40;98.20;;;;;;5032459;28;20029;-69
2023/06/17 06:10:08;;;;;;;45.97;23.07;;;18.50;98.30;;;;;;5032157;28;20036;-70
2023/06/17 06:12:33;;;;;;;47.38;22.52;;;18.20;98.50;;;;;;5033812;28;20581;-69
2023/06/17 06:14:59;;;;;;;45.95;21.77;;;18.20;98.70;;;;;;5032222;28;20561;-70
2023/06/17 06:17:25;;;;;;;48.45;20.98;;;18.20;98.70;;;;;;5032473;28;20275;-69
2023/06/17 06:19:51;;;;;;;45.50;21.08;;;18.40;98.50;;;;;;5032463;28;20033;-70
2023/06/17 06:22:18;;;;;;;48.38;21.38;;;18.40;98.30;;;;;;5033060;28;20037;-68
2023/06/17 06:24:43;;;;;;;44.72;22.25;;;18.50;98.10;;;;;;5032395;28;20117;-70
2023/06/17 06:27:09;;;;;;;51.85;23.27;;;18.60;98.20;;;;;;5032756;28;20108;-70
2023/06/17 06:29:35;;;;;;;52.15;25.25;;;18.60;98.10;;;;;;5032544;28;20394;-70
2023/06/17 06:32:02;;;;;;;51.25;24.33;;;18.40;98.30;;;;;;5032093;28;20474;-69
2023/06/17 06:34:28;;;;;;;54.05;25.88;;;18.40;98.30;;;;;;5032314;28;20328;-68
2023/06/17 06:36:58;;;;;;;49.70;25.95;;;18.50;98.20;;;;;;5032631;28;20091;-69
2023/06/17 06:39:25;;;;;;;54.38;28.38;;;18.40;98.30;;;;;;5032070;28;20032;-71
2023/06/17 06:41:51;;;;;;;60.55;28.80;;;18.20;98.40;;;;;;5032060;28;20129;-71
2023/06/17 06:44:17;;;;;;;57.30;26.67;;;18.20;98.60;;;;;;5031958;28;20158;-68
2023/06/17 06:46:43;;;;;;;54.28;28.25;;;18.30;98.30;;;;;;5031930;28;20029;-68
2023/06/17 06:49:08;;;;;;;63.22;29.67;;;18.40;98.10;;;;;;5032444;28;20087;-69
2023/06/17 06:51:34;;;;;;;51.50;26.88;;;18.50;98.00;;;;;;5031754;28;20478;-70
2023/06/17 06:54:00;;;;;;;58.25;25.88;;;18.40;98.00;;;;;;5031836;28;20091;-67
2023/06/17 06:56:26;;;;;;;53.22;24.52;;;18.30;98.10;;;;;;5031972;28;20041;-69
2023/06/17 06:58:52;;;;;;;50.10;24.67;;;18.30;98.20;;;;;;5031795;28;20025;-67
2023/06/17 07:01:18;;;;;;;52.08;24.00;;;18.30;98.10;;;;;;5032246;28;20354;-67
2023/06/17 07:03:44;;;;;;;42.97;20.88;;;18.40;98.10;;;;;;5030866;28;20060;-68
2023/06/17 07:06:10;;;;;;;37.08;19.27;;;18.30;98.30;;;;;;5031377;28;20038;-69
2023/06/17 07:08:35;;;;;;;35.97;18.80;;;18.20;98.40;;;;;;5031672;28;20038;-69
2023/06/17 07:11:01;;;;;;;36.88;18.17;;;18.20;98.60;;;;;;5030953;28;20133;-69
2023/06/17 07:13:27;;;;;;;33.35;17.85;;;18.20;98.70;;;;;;5031018;28;20037;-68
2023/06/17 07:15:53;;;;;;;36.67;17.83;;;18.10;98.70;;;;;;5031884;28;20410;-69
2023/06/17 07:18:18;;;;;;;37.40;17.13;;;18.10;98.70;;;;;;5031471;28;20036;-67
2023/06/17 07:20:44;;;;;;;37.08;17.63;;;18.10;98.50;;;;;;5031488;28;20030;-68
2023/06/17 07:23:10;;;;;;;37.22;17.85;;;18.10;98.50;;;;;;5030095;28;20049;-67
2023/06/17 07:25:36;;;;;;;27.88;17.02;;;18.20;98.50;;;;;;5030273;28;20033;-66
2023/06/17 07:28:03;;;;;;;28.00;16.75;;;18.20;98.40;;;;;;5031906;28;20026;-69
2023/06/17 07:30:29;;;;;;;31.40;17.45;;;18.40;98.30;;;;;;5031245;28;20455;-69
2023/06/17 07:32:55;;;;;;;30.50;18.15;;;18.30;98.20;;;;;;5030828;28;20124;-68
2023/06/17 07:35:21;;;;;;;34.95;17.23;;;18.40;98.10;;;;;;5031236;28;20033;-69
2023/06/17 07:37:47;;;;;;;31.92;17.15;;;18.50;97.70;;;;;;5031381;28;20172;-68
2023/06/17 07:40:13;;;;;;;28.30;17.17;;;18.70;97.60;;;;;;5031575;28;20025;-69
2023/06/17 07:42:39;;;;;;;30.05;18.15;;;18.70;97.40;;;;;;5031070;28;20033;-68
2023/06/17 07:45:05;;;;;;;31.73;18.58;;;18.80;97.20;;;;;;5031043;28;20030;-69
2023/06/17 07:47:31;;;;;;;32.65;19.38;;;18.80;97.20;;;;;;5031000;28;20116;-68
2023/06/17 07:49:57;;;;;;;32.63;19.20;;;18.70;97.10;;;;;;5031042;28;20033;-69
2023/06/17 07:52:22;;;;;;;33.03;19.65;;;18.70;97.20;;;;;;5031705;28;20021;-69
2023/06/17 07:54:49;;;;;;;56.80;33.90;;;18.80;97.00;;;;;;5030969;28;20411;-69
2023/06/17 07:57:15;;;;;;;39.70;20.13;;;18.80;97.10;;;;;;5030977;28;20021;-69
2023/06/17 07:59:42;;;;;;;28.70;17.52;;;19.00;96.70;;;;;;5029090;28;20371;-70
2023/06/17 08:02:07;;;;;;;29.92;15.90;;;19.00;96.70;;;;;;5030783;28;20056;-70
2023/06/17 08:04:33;;;;;;;32.10;18.55;;;18.90;96.70;;;;;;5031158;28;20017;-69
2023/06/17 08:06:59;;;;;;;31.40;19.08;;;18.90;96.70;;;;;;5030154;28;20028;-70
2023/06/17 08:09:24;;;;;;;31.95;18.23;;;18.90;96.60;;;;;;5029728;28;20076;-69
2023/06/17 08:11:51;;;;;;;28.98;17.10;;;18.70;96.80;;;;;;5029243;28;20037;-70
2023/06/17 08:14:17;;;;;;;34.30;17.92;;;18.90;96.90;;;;;;5030608;28;20052;-70
2023/06/17 08:16:43;;;;;;;29.70;17.08;;;19.20;96.50;;;;;;5030606;28;20025;-69
2023/06/17 08:19:09;;;;;;;26.10;17.30;;;19.20;96.40;;;;;;5030972;28;20036;-67
2023/06/17 08:21:36;;;;;;;25.98;15.75;;;19.20;96.10;;;;;;5029870;28;20368;-67
2023/06/17 08:24:19;;;;;;;28.83;17.33;;;19.30;96.10;;;;;;5030307;28;20392;-71
2023/06/17 08:26:45;;;;;;;31.80;16.73;;;19.60;95.90;;;;;;5030644;28;20033;-68
2023/06/17 08:29:15;;;;;;;26.35;16.40;;;19.70;95.70;;;;;;5030294;28;20036;-68
2023/06/17 08:31:49;;;;;;;26.95;16.40;;;19.80;95.40;;;;;;5030159;28;20120;-68
2023/06/17 08:34:15;;;;;;;32.28;16.77;;;20.00;95.20;;;;;;5031439;28;20036;-67
2023/06/17 08:36:46;;;;;;;26.52;16.05;;;20.00;94.90;;;;;;5031023;28;20045;-67
2023/06/17 08:39:12;;;;;;;29.50;17.02;;;19.90;95.00;;;;;;5030454;28;20451;-68
2023/06/17 08:41:42;;;;;;;24.92;16.23;;;20.00;95.00;;;;;;5030529;28;20064;-65
2023/06/17 08:44:13;;;;;;;27.77;16.27;;;20.10;94.90;;;;;;5030232;28;20109;-65
2023/06/17 08:46:42;;;;;;;26.15;15.80;;;20.30;94.60;;;;;;5030543;28;20021;-67
2023/06/17 08:49:08;;;;;;;25.27;15.15;;;20.70;94.50;;;;;;5030718;28;20029;-66
2023/06/17 08:51:35;;;;;;;25.42;15.20;;;20.90;94.20;;;;;;5030198;28;20037;-67
2023/06/17 08:54:01;;;;;;;24.85;15.57;;;21.00;93.80;;;;;;5030051;28;20121;-67
2023/06/17 08:56:27;;;;;;;26.02;15.13;;;21.10;93.30;;;;;;5030096;28;20459;-67
2023/06/17 08:58:55;;;;;;;25.73;15.48;;;21.00;93.40;;;;;;5030090;28;20039;-67
2023/06/17 09:01:22;;;;;;;28.10;15.15;;;21.30;93.30;;;;;;5030558;28;20398;-66
2023/06/17 09:03:51;;;;;;;27.57;15.00;;;21.50;92.90;;;;;;5030245;28;20071;-68
2023/06/17 09:06:25;;;;;;;29.33;15.88;;;21.30;92.60;;;;;;5029880;28;20061;-68
2023/06/17 09:08:52;;;;;;;25.73;16.20;;;21.30;92.60;;;;;;5029705;28;20037;-69
2023/06/17 09:11:22;;;;;;;25.35;15.45;;;21.10;92.60;;;;;;5029937;28;20109;-68
2023/06/17 09:13:59;;;;;;;27.83;15.32;;;21.30;92.80;;;;;;5029250;28;20033;-67
2023/06/17 09:16:34;;;;;;;20.63;14.10;;;21.70;92.50;;;;;;5030826;28;20033;-67
2023/06/17 09:19:13;;;;;;;23.00;14.65;;;21.90;92.20;;;;;;5030406;28;20390;-66
2023/06/17 09:21:39;;;;;;;21.17;13.85;;;22.10;92.00;;;;;;5030166;28;20116;-67
2023/06/17 09:24:06;;;;;;;20.40;13.13;;;22.30;92.00;;;;;;5028732;28;20558;-66
2023/06/17 09:26:33;;;;;;;23.08;14.35;;;22.40;91.60;;;;;;5028695;28;20112;-66
2023/06/17 09:29:01;;;;;;;24.07;14.97;;;22.80;91.40;;;;;;5029909;28;20036;-67
2023/06/17 09:31:28;;;;;;;;;;;23.00;90.90;;;;;;5030433;28;20065;-67
2023/06/17 09:33:54;;;;;;;25.90;14.67;;;23.00;90.40;;;;;;5033468;28;19900;-66
2023/06/17 09:36:22;;;;;;;24.88;15.65;;;23.20;90.40;;;;;;5033552;28;20352;-67
2023/06/17 09:38:51;;;;;;;22.27;13.52;;;23.30;90.30;;;;;;5033680;28;20056;-69
2023/06/17 09:41:18;;;;;;;19.35;13.00;;;23.60;90.00;;;;;;5033447;28;20085;-66
2023/06/17 09:43:54;;;;;;;21.73;14.23;;;23.50;90.30;;;;;;5033295;28;20036;-65
2023/06/17 09:46:35;;;;;;;22.48;14.75;;;23.60;89.40;;;;;;5032603;28;20014;-65
2023/06/17 09:49:02;;;;;;;25.38;14.18;;;23.20;89.70;;;;;;5033518;28;20041;-65
2023/06/17 09:51:36;;;;;;;21.67;13.77;;;23.10;90.00;;;;;;5033307;28;20132;-66
2023/06/17 09:54:05;;;;;;;19.38;13.25;;;23.10;89.80;;;;;;5033494;28;20029;-65
2023/06/17 09:56:31;;;;;;;28.25;13.50;;;23.20;90.20;;;;;;5033542;28;20037;-66
2023/06/17 09:58:58;;;;;;;26.52;17.58;;;23.40;89.30;;;;;;5033138;28;20053;-69
2023/06/17 10:01:30;;;;;;;23.25;14.18;;;23.30;89.80;;;;;;5033750;28;20053;-66
2023/06/17 10:03:58;;;;;;;27.27;17.17;;;23.50;89.60;;;;;;5032333;28;20044;-70
2023/06/17 10:06:28;;;;;;;25.20;14.95;;;23.40;89.20;;;;;;5033237;28;20033;-67
2023/06/17 10:08:54;;;;;;;22.23;14.32;;;23.60;89.40;;;;;;5033389;28;20033;-66
2023/06/17 10:11:20;;;;;;;22.50;15.18;;;23.70;88.60;;;;;;5032905;28;20132;-66
2023/06/17 10:13:56;;;;;;;21.75;14.30;;;23.50;89.00;;;;;;5033183;28;20048;-66
2023/06/17 10:16:25;;;;;;;22.55;13.30;;;23.40;88.60;;;;;;5033254;28;20025;-66
2023/06/17 10:18:53;;;;;;;23.20;13.38;;;23.80;88.60;;;;;;5032512;28;20037;-65
2023/06/17 10:21:20;;;;;;;;;;;23.90;88.80;;;;;;5033233;28;20030;-66
2023/06/17 10:23:47;;;;;;;25.27;12.68;;;23.80;88.30;;;;;;5031449;28;19941;-67
2023/06/17 10:26:13;;;;;;;19.55;12.43;;;23.70;87.90;;;;;;5032516;28;20026;-67
2023/06/17 10:28:44;;;;;;;20.80;12.88;;;23.80;88.50;;;;;;5032710;28;20036;-67
2023/06/17 10:31:21;;;;;;;21.08;13.20;;;23.90;88.40;;;;;;5032451;28;20034;-67
2023/06/17 10:33:48;;;;;;;26.02;15.15;;;24.10;88.00;;;;;;5032380;28;20378;-66
2023/06/17 10:36:14;;;;;;;24.02;14.07;;;24.10;87.10;;;;;;5032422;28;20029;-66
2023/06/17 10:38:40;;;;;;;21.83;13.43;;;24.10;87.10;;;;;;5031169;28;20037;-67
2023/06/17 10:41:06;;;;;;;22.42;12.68;;;24.30;87.00;;;;;;5032592;28;20084;-66
2023/06/17 10:43:37;;;;;;;21.27;12.82;;;24.50;86.40;;;;;;5031026;28;20040;-69
2023/06/17 10:46:03;;;;;;;19.23;14.30;;;24.60;86.40;;;;;;5032388;28;20021;-68
2023/06/17 10:48:33;;;;;;;20.60;13.15;;;24.70;85.30;;;;;;5032224;28;20052;-66
2023/06/17 10:51:11;;;;;;;22.20;13.52;;;24.60;86.10;;;;;;5035314;28;20371;-68
2023/06/17 10:53:45;;;;;;;22.08;13.50;;;24.60;85.60;;;;;;5053188;28;20037;-67
2023/06/17 10:56:11;;;;;;;19.92;13.38;;;24.60;85.50;;;;;;5053148;28;20363;-67
2023/06/17 10:58:47;;;;;;;23.27;13.90;;;24.60;85.40;;;;;;5052976;28;20066;-69
2023/06/17 11:01:13;;;;;;;18.38;12.95;;;24.60;85.70;;;;;;5053473;28;20478;-68
2023/06/17 11:03:40;;;;;;;22.38;13.73;;;24.60;85.40;;;;;;5052799;28;20040;-68
2023/06/17 11:06:07;;;;;;;23.95;12.85;;;24.60;85.50;;;;;;5052566;28;20029;-68
2023/06/17 11:08:35;;;;;;;21.23;13.38;;;24.50;85.60;;;;;;5052750;28;20060;-68
2023/06/17 11:11:16;;;;;;;20.65;13.80;;;24.70;86.00;;;;;;5052628;28;20139;-69
2023/06/17 11:13:51;;;;;;;24.08;13.88;;;24.40;84.80;;;;;;5052557;28;20032;-69
2023/06/17 11:16:17;;;;;;;17.70;12.32;;;24.50;85.10;;;;;;5053289;28;20438;-68
2023/06/17 11:18:44;;;;;;;19.25;12.38;;;24.60;84.80;;;;;;5052552;28;20037;-68
2023/06/17 11:21:10;;;;;;;20.10;13.57;;;24.60;84.60;;;;;;5052201;28;20022;-67
2023/06/17 11:23:39;;;;;;;22.80;13.82;;;24.60;84.50;;;;;;5052387;28;20121;-69
2023/06/17 11:26:07;;;;;;;25.40;14.70;;;24.50;84.90;;;;;;5052367;28;20516;-68
2023/06/17 11:28:35;;;;;;;19.80;13.48;;;24.40;85.20;;;;;;5052429;28;20025;-68
2023/06/17 11:31:01;;;;;;;18.75;12.55;;;24.70;84.90;;;;;;5052858;28;20033;-67
2023/06/17 11:33:28;;;;;;;16.10;11.70;;;24.90;84.60;;;;;;5052377;28;20060;-68
2023/06/17 11:35:54;;;;;;;20.63;12.70;;;25.10;84.50;;;;;;5051972;28;20034;-67
2023/06/17 11:38:24;;;;;;;19.27;12.20;;;24.90;83.00;;;;;;5051031;28;20157;-67
2023/06/17 11:40:57;;;;;;;20.00;12.75;;;24.70;83.70;;;;;;5052082;28;20362;-67
2023/06/17 11:43:26;;;;;;;17.88;12.77;;;25.00;83.70;;;;;;5052554;28;20028;-66
2023/06/17 11:45:56;;;;;;;20.83;12.95;;;24.80;83.90;;;;;;5052341;28;20631;-67
2023/06/17 11:48:43;;;;;;;19.48;11.95;;;25.00;83.80;;;;;;5052025;28;20044;-65
2023/06/17 11:51:14;;;;;;;23.00;12.73;;;25.10;83.10;;;;;;5051422;28;20087;-66
2023/06/17 11:53:43;;;;;;;24.75;13.65;;;25.20;83.20;;;;;;5051762;28;20028;-65
2023/06/17 11:56:08;;;;;;;23.80;12.50;;;25.20;82.70;;;;;;5050949;28;20118;-65
2023/06/17 11:58:38;;;;;;;21.92;13.05;;;25.20;83.00;;;;;;5050728;28;20048;-66
2023/06/17 12:01:05;;;;;;;18.30;12.45;;;25.30;82.10;;;;;;5051145;28;20108;-64
2023/06/17 12:03:31;;;;;;;22.40;12.68;;;25.30;82.00;;;;;;5051766;28;20043;-66
2023/06/17 12:05:57;;;;;;;19.35;13.38;;;25.20;82.10;;;;;;5051620;28;20032;-66
2023/06/17 12:08:43;;;;;;;24.33;13.43;;;25.20;82.20;;;;;;5051956;28;20490;-66
2023/06/17 12:11:30;;;;;;;18.85;12.10;;;25.30;82.20;;;;;;5049956;28;20056;-66
2023/06/17 12:13:57;;;;;;;20.58;13.30;;;25.50;82.00;;;;;;5049543;28;20067;-67
2023/06/17 12:16:31;;;;;;;17.55;12.20;;;25.50;81.70;;;;;;5052137;28;20512;-69
2023/06/17 12:18:58;;;;;;;20.00;11.85;;;25.50;81.20;;;;;;5051691;28;20041;-68
2023/06/17 12:21:24;;;;;;;19.27;12.32;;;25.50;80.50;;;;;;5051426;28;20048;-67
2023/06/17 12:23:53;;;;;;;20.45;12.38;;;25.40;80.50;;;;;;5051101;28;20025;-67
2023/06/17 12:26:24;;;;;;;17.05;11.90;;;25.40;80.80;;;;;;5050754;28;20029;-67
2023/06/17 12:28:50;;;;;;;17.60;12.13;;;25.50;80.20;;;;;;5051327;28;20458;-67
2023/06/17 12:31:17;;;;;;;19.92;12.82;;;25.30;80.50;;;;;;5051422;28;20098;-66
2023/06/17 12:33:43;;;;;;;18.25;12.88;;;25.10;80.70;;;;;;5051382;28;20094;-66